createdAt,value
2023-02-24T00:01:20.351Z,4.44
2023-02-24T00:03:46.944Z,4.50
2023-02-24T00:06:13.371Z,4.49
2023-02-24T00:08:40.061Z,4.39
2023-02-24T00:11:11.064Z,4.42
2023-02-24T00:13:37.449Z,4.41
2023-02-24T00:16:04.927Z,4.43
2023-02-24T00:18:34.388Z,4.36
2023-02-24T00:21:09.681Z,4.43
2023-02-24T00:23:37.344Z,4.41
2023-02-24T00:26:06.578Z,4.42
2023-02-24T00:28:34.024Z,4.39
2023-02-24T00:31:08.089Z,4.41
2023-02-24T00:33:34.715Z,4.37
2023-02-24T00:36:05.841Z,4.38
2023-02-24T00:38:35.844Z,4.29
2023-02-24T00:41:08.740Z,4.27
2023-02-24T00:43:37.284Z,4.27
2023-02-24T00:46:11.126Z,4.25
2023-02-24T00:48:41.702Z,4.19
2023-02-24T00:51:11.735Z,4.22
2023-02-24T00:53:38.875Z,4.16
2023-02-24T00:56:12.043Z,4.18
2023-02-24T00:58:39.702Z,4.17
2023-02-24T01:01:18.144Z,4.18
2023-02-24T01:03:45.398Z,4.17
2023-02-24T01:06:12.702Z,4.17
2023-02-24T01:08:47.463Z,4.18
2023-02-24T01:11:33.414Z,4.04
2023-02-24T01:13:59.951Z,4.03
2023-02-24T01:16:26.586Z,4.05
2023-02-24T01:18:53.459Z,4.04
2023-02-24T01:21:20.355Z,3.91
2023-02-24T01:23:48.161Z,3.93
2023-02-24T01:26:15.819Z,3.98
2023-02-24T01:28:43.133Z,3.98
2023-02-24T01:31:09.855Z,3.93
2023-02-24T01:33:37.283Z,3.86
2023-02-24T01:36:10.741Z,3.84
2023-02-24T01:38:37.122Z,3.83
2023-02-24T01:41:05.125Z,3.81
2023-02-24T01:43:52.155Z,3.81
2023-02-24T01:46:23.369Z,3.84
2023-02-24T01:48:50.819Z,3.93
2023-02-24T01:51:17.733Z,3.89
2023-02-24T01:53:44.251Z,3.85
2023-02-24T01:56:13.657Z,3.84
2023-02-24T01:58:40.247Z,3.88
2023-02-24T02:01:09.354Z,3.92
2023-02-24T02:03:38.118Z,3.91
2023-02-24T02:06:09.579Z,3.86
2023-02-24T02:08:36.938Z,3.95
2023-02-24T02:11:06.201Z,3.94
2023-02-24T02:13:35.947Z,3.90
2023-02-24T02:16:20.565Z,3.91
2023-02-24T02:18:50.110Z,3.92
2023-02-24T02:21:25.793Z,3.89
2023-02-24T02:23:57.901Z,3.91
2023-02-24T02:26:57.796Z,3.97
2023-02-24T02:29:36.613Z,3.95
2023-02-24T02:32:24.311Z,3.92
2023-02-24T02:34:55.401Z,3.95
2023-02-24T02:37:32.997Z,3.91
2023-02-24T02:40:20.998Z,3.91
2023-02-24T02:43:02.162Z,3.95
2023-02-24T02:45:40.246Z,3.89
2023-02-24T02:48:09.701Z,3.86
2023-02-24T02:50:39.032Z,3.88
2023-02-24T02:53:08.867Z,3.92
2023-02-24T02:55:45.470Z,3.90
2023-02-24T02:58:14.791Z,3.92
2023-02-24T03:00:50.274Z,3.96
2023-02-24T03:03:17.645Z,3.95
2023-02-24T03:05:50.796Z,3.96
2023-02-24T03:08:20.970Z,4.01
2023-02-24T03:10:51.171Z,4.05
2023-02-24T03:13:20.154Z,4.03
2023-02-24T03:15:47.457Z,4.02
2023-02-24T03:18:29.294Z,3.96
2023-02-24T03:21:09.598Z,3.95
2023-02-24T03:23:38.175Z,3.98
2023-02-24T03:26:17.234Z,3.98
2023-02-24T03:28:50.410Z,3.94
2023-02-24T03:31:22.821Z,3.92
2023-02-24T03:34:11.385Z,3.91
2023-02-24T03:36:37.809Z,3.89
2023-02-24T03:39:05.669Z,3.84
2023-02-24T03:41:38.628Z,3.88
2023-02-24T03:44:05.377Z,3.85
2023-02-24T03:46:31.828Z,3.91
2023-02-24T03:49:03.268Z,3.90
2023-02-24T03:51:29.629Z,3.87
2023-02-24T03:54:33.290Z,3.84
2023-02-24T03:57:22.359Z,3.83
2023-02-24T03:59:58.592Z,3.86
2023-02-24T04:02:30.258Z,3.87
2023-02-24T04:05:11.021Z,3.83
2023-02-24T04:07:52.176Z,3.83
2023-02-24T04:10:23.496Z,3.76
2023-02-24T04:12:52.404Z,3.76
2023-02-24T04:15:30.068Z,3.80
2023-02-24T04:17:58.116Z,3.77
2023-02-24T04:20:27.857Z,3.73
2023-02-24T04:23:08.921Z,3.75
2023-02-24T04:25:35.262Z,3.71
2023-02-24T04:28:03.227Z,3.70
2023-02-24T04:30:31.940Z,3.69
2023-02-24T04:32:58.431Z,3.66
2023-02-24T04:35:25.352Z,3.67
2023-02-24T04:37:51.722Z,3.68
2023-02-24T04:40:22.207Z,3.66
2023-02-24T04:42:49.643Z,3.66
2023-02-24T04:45:17.017Z,3.62
2023-02-24T04:47:46.083Z,3.63
2023-02-24T04:50:22.700Z,3.65
2023-02-24T04:53:02.586Z,3.64
2023-02-24T04:55:32.941Z,3.66
2023-02-24T04:58:00.643Z,3.66
2023-02-24T05:00:29.324Z,3.60
2023-02-24T05:02:56.122Z,3.61
2023-02-24T05:05:25.521Z,3.60
2023-02-24T05:07:53.093Z,3.58
2023-02-24T05:10:19.707Z,3.58
2023-02-24T05:12:46.066Z,3.58
2023-02-24T05:15:12.618Z,3.58
2023-02-24T05:17:40.551Z,3.57
2023-02-24T05:20:27.604Z,3.51
2023-02-24T05:22:54.037Z,3.51
2023-02-24T05:25:20.576Z,3.57
2023-02-24T05:27:47.721Z,3.59
2023-02-24T05:30:14.501Z,3.62
2023-02-24T05:32:41.172Z,3.60
2023-02-24T05:35:08.297Z,3.52
2023-02-24T05:37:38.861Z,3.48
2023-02-24T05:40:05.910Z,3.47
2023-02-24T05:42:35.096Z,3.44
2023-02-24T05:45:02.004Z,3.44
2023-02-24T05:47:28.990Z,3.41
2023-02-24T05:49:56.814Z,3.43
2023-02-24T05:52:23.444Z,3.45
2023-02-24T05:54:50.451Z,3.43
2023-02-24T05:57:21.376Z,3.41
2023-02-24T05:59:51.216Z,3.32
2023-02-24T06:02:27.056Z,3.37
2023-02-24T06:04:53.992Z,3.33
2023-02-24T06:07:24.580Z,3.27
2023-02-24T06:09:58.048Z,3.31
2023-02-24T06:12:30.530Z,3.36
2023-02-24T06:14:58.193Z,3.32
2023-02-24T06:17:25.550Z,3.34
2023-02-24T06:19:52.620Z,3.31
2023-02-24T06:22:20.419Z,3.33
2023-02-24T06:24:49.153Z,3.35
2023-02-24T06:27:18.637Z,3.33
2023-02-24T06:29:46.215Z,3.36
2023-02-24T06:32:12.769Z,3.34
2023-02-24T06:34:39.591Z,3.34
2023-02-24T06:37:07.104Z,3.34
2023-02-24T06:39:36.609Z,3.27
2023-02-24T06:42:04.996Z,3.24
2023-02-24T06:44:32.737Z,3.26
2023-02-24T06:46:59.200Z,3.26
2023-02-24T06:49:26.841Z,3.32
2023-02-24T06:51:54.615Z,3.29
2023-02-24T06:54:22.553Z,3.31
2023-02-24T06:56:49.800Z,3.36
2023-02-24T06:59:21.567Z,3.38
2023-02-24T07:01:48.817Z,3.36
2023-02-24T07:04:15.477Z,3.33
2023-02-24T07:06:43.012Z,3.33
2023-02-24T07:09:12.661Z,3.32
2023-02-24T07:11:46.866Z,3.37
2023-02-24T07:14:13.782Z,3.42
2023-02-24T07:16:45.704Z,3.41
2023-02-24T07:19:14.051Z,3.40
2023-02-24T07:21:43.487Z,3.45
2023-02-24T07:24:13.289Z,3.46
2023-02-24T07:26:43.778Z,3.40
2023-02-24T07:29:11.362Z,3.39
2023-02-24T07:31:39.219Z,3.41
2023-02-24T07:34:06.330Z,3.39
2023-02-24T07:36:38.827Z,3.39
2023-02-24T07:39:07.946Z,3.39
2023-02-24T07:41:34.491Z,3.41
2023-02-24T07:44:03.232Z,3.47
2023-02-24T07:46:29.878Z,3.43
2023-02-24T07:48:56.793Z,3.50
2023-02-24T07:51:24.591Z,3.44
2023-02-24T07:54:02.866Z,3.45
2023-02-24T07:56:30.918Z,3.45
2023-02-24T07:58:59.459Z,3.47
2023-02-24T08:01:28.144Z,3.46
2023-02-24T08:04:01.435Z,3.48
2023-02-24T08:06:38.328Z,3.50
2023-02-24T08:09:26.520Z,3.51
2023-02-24T08:11:54.408Z,3.49
2023-02-24T08:14:32.849Z,3.50
2023-02-24T08:16:59.390Z,3.51
2023-02-24T08:19:32.704Z,3.46
2023-02-24T08:22:28.275Z,3.45
2023-02-24T08:24:56.071Z,3.47
2023-02-24T08:27:24.222Z,3.46
2023-02-24T08:29:58.398Z,3.51
2023-02-24T08:32:24.803Z,3.55
2023-02-24T08:34:56.327Z,3.53
2023-02-24T08:37:24.757Z,3.55
2023-02-24T08:39:53.990Z,3.60
2023-02-24T08:42:20.800Z,3.50
2023-02-24T08:44:50.379Z,3.55
2023-02-24T08:47:21.005Z,3.53
2023-02-24T08:49:49.400Z,3.64
2023-02-24T08:52:15.991Z,3.59
2023-02-24T08:54:49.092Z,3.60
2023-02-24T08:57:18.121Z,3.60
2023-02-24T08:59:49.957Z,3.63
2023-02-24T09:02:18.840Z,3.61
2023-02-24T09:04:46.164Z,3.60
2023-02-24T09:07:16.609Z,3.61
2023-02-24T09:09:43.436Z,3.66
2023-02-24T09:12:22.036Z,3.59
2023-02-24T09:14:49.519Z,3.64
2023-02-24T09:17:20.438Z,3.64
2023-02-24T09:19:51.550Z,3.64
2023-02-24T09:22:28.404Z,3.49
2023-02-24T09:25:15.070Z,3.50
2023-02-24T09:27:44.098Z,3.51
2023-02-24T09:30:30.964Z,3.46
2023-02-24T09:33:01.271Z,3.36
2023-02-24T09:35:31.940Z,3.24
2023-02-24T09:38:00.217Z,3.19
2023-02-24T09:40:48.854Z,3.13
2023-02-24T09:43:24.281Z,2.97
2023-02-24T09:46:14.571Z,2.94
2023-02-24T09:48:51.364Z,2.81
2023-02-24T09:51:28.781Z,2.76
2023-02-24T09:53:56.568Z,2.79
2023-02-24T09:56:30.644Z,2.74
2023-02-24T09:59:00.107Z,2.71
2023-02-24T10:01:33.750Z,2.70
2023-02-24T10:04:18.604Z,2.74
2023-02-24T10:07:15.588Z,2.65
2023-02-24T10:10:20.333Z,2.73
2023-02-24T10:12:52.884Z,2.57
2023-02-24T10:15:44.410Z,2.59
2023-02-24T10:18:31.158Z,2.68
2023-02-24T10:21:03.419Z,2.68
2023-02-24T10:23:34.722Z,2.67
2023-02-24T10:26:31.840Z,2.66
2023-02-24T10:29:18.923Z,2.57
2023-02-24T10:31:47.804Z,2.59
2023-02-24T10:34:25.596Z,2.65
2023-02-24T10:36:57.496Z,2.59
2023-02-24T10:39:30.375Z,2.53
2023-02-24T10:42:15.512Z,2.61
2023-02-24T10:45:01.393Z,2.70
2023-02-24T10:47:32.677Z,2.66
2023-02-24T10:50:01.221Z,2.62
2023-02-24T10:52:51.110Z,2.53
2023-02-24T10:55:39.315Z,2.50
2023-02-24T10:58:06.404Z,2.55
2023-02-24T11:01:12.641Z,2.57
2023-02-24T11:03:43.099Z,2.66
2023-02-24T11:06:42.037Z,2.59
2023-02-24T11:09:27.257Z,2.52
2023-02-24T11:12:13.544Z,2.45
2023-02-24T11:15:12.242Z,2.40
2023-02-24T11:17:46.671Z,2.52
2023-02-24T11:20:47.886Z,2.43
2023-02-24T11:23:20.370Z,2.54
2023-02-24T11:25:48.184Z,2.58
2023-02-24T11:28:42.373Z,2.57
2023-02-24T11:31:14.823Z,2.64
2023-02-24T11:33:53.851Z,2.67
2023-02-24T11:36:46.862Z,2.70
2023-02-24T11:39:38.190Z,2.67
2023-02-24T11:42:12.668Z,2.59
2023-02-24T11:44:53.475Z,2.61
2023-02-24T11:47:28.081Z,2.62
2023-02-24T11:50:15.903Z,2.60
2023-02-24T11:52:43.464Z,2.54
2023-02-24T11:55:36.134Z,2.60
2023-02-24T11:58:15.145Z,2.47
2023-02-24T12:00:57.933Z,2.48
2023-02-24T12:03:33.385Z,2.46
2023-02-24T12:06:12.530Z,2.42
2023-02-24T12:08:39.625Z,2.49
2023-02-24T12:11:29.070Z,2.43
2023-02-24T12:14:36.087Z,2.51
2023-02-24T12:17:25.311Z,2.40
2023-02-24T12:19:51.692Z,2.42
2023-02-24T12:22:18.054Z,2.40
2023-02-24T12:24:47.607Z,2.46
2023-02-24T12:27:35.731Z,2.49
2023-02-24T12:30:28.801Z,2.52
2023-02-24T12:33:21.252Z,2.53
2023-02-24T12:35:53.574Z,2.54
2023-02-24T12:38:48.997Z,2.58
2023-02-24T12:41:24.636Z,2.48
2023-02-24T12:44:19.867Z,2.51
2023-02-24T12:46:48.159Z,2.49
2023-02-24T12:49:14.906Z,2.53
2023-02-24T12:51:56.433Z,2.49
2023-02-24T12:54:24.214Z,2.39
2023-02-24T12:57:16.243Z,2.39
2023-02-24T12:59:42.664Z,2.39
2023-02-24T13:02:42.473Z,2.38
2023-02-24T13:05:31.013Z,2.32
2023-02-24T13:08:09.513Z,2.26
2023-02-24T13:11:01.106Z,2.32
2023-02-24T13:13:42.785Z,2.32
2023-02-24T13:16:09.934Z,2.30
2023-02-24T13:18:37.140Z,2.32
2023-02-24T13:21:07.722Z,2.29
2023-02-24T13:23:34.158Z,2.20
2023-02-24T13:26:00.633Z,2.26
2023-02-24T13:28:36.186Z,2.28
2023-02-24T13:31:06.513Z,2.25
2023-02-24T13:33:36.994Z,2.32
2023-02-24T13:36:14.061Z,2.31
2023-02-24T13:38:45.102Z,2.39
2023-02-24T13:41:26.811Z,2.31
2023-02-24T13:44:02.304Z,2.34
2023-02-24T13:46:33.852Z,2.38
2023-02-24T13:49:18.546Z,2.40
2023-02-24T13:52:00.104Z,2.39
2023-02-24T13:54:44.168Z,2.33
2023-02-24T13:57:35.495Z,2.34
2023-02-24T14:00:20.009Z,2.33
2023-02-24T14:02:46.522Z,2.37
2023-02-24T14:05:32.425Z,2.38
2023-02-24T14:07:59.048Z,2.30
2023-02-24T14:10:29.783Z,2.33
2023-02-24T14:13:00.917Z,2.29
2023-02-24T14:15:27.420Z,2.25
2023-02-24T14:18:00.923Z,2.24
2023-02-24T14:20:28.572Z,2.24
2023-02-24T14:23:00.895Z,2.28
2023-02-24T14:25:34.918Z,2.30
2023-02-24T14:28:01.399Z,2.34
2023-02-24T14:30:46.056Z,2.44
2023-02-24T14:33:23.586Z,2.50
2023-02-24T14:35:50.129Z,2.53
2023-02-24T14:38:29.561Z,2.58
2023-02-24T14:40:56.100Z,2.64
2023-02-24T14:43:22.462Z,2.70
2023-02-24T14:45:49.865Z,2.72
2023-02-24T14:48:30.762Z,2.78
2023-02-24T14:51:01.675Z,2.79
2023-02-24T14:53:29.209Z,2.82
2023-02-24T14:55:56.583Z,2.84
2023-02-24T14:58:25.146Z,2.86
2023-02-24T15:00:57.754Z,2.89
2023-02-24T15:03:31.560Z,2.94
2023-02-24T15:06:00.373Z,2.95
2023-02-24T15:08:37.365Z,2.98
2023-02-24T15:11:25.941Z,3.02
2023-02-24T15:13:57.345Z,3.03
2023-02-24T15:16:29.465Z,3.11
2023-02-24T15:18:58.862Z,3.11
2023-02-24T15:21:32.561Z,3.15
2023-02-24T15:24:13.797Z,3.16
2023-02-24T15:26:40.201Z,3.18
2023-02-24T15:29:14.518Z,3.12
2023-02-24T15:31:46.844Z,3.10
2023-02-24T15:34:15.439Z,3.10
2023-02-24T15:36:41.846Z,3.10
2023-02-24T15:39:12.106Z,3.13
2023-02-24T15:41:40.749Z,3.14
2023-02-24T15:44:20.786Z,3.14
2023-02-24T15:46:47.163Z,3.16
2023-02-24T15:49:13.516Z,3.20
2023-02-24T15:51:41.494Z,3.19
2023-02-24T15:54:12.752Z,3.22
2023-02-24T15:56:39.266Z,3.27
2023-02-24T15:59:06.042Z,3.26
2023-02-24T16:01:32.941Z,3.27
2023-02-24T16:04:00.233Z,3.29
2023-02-24T16:06:26.799Z,3.32
2023-02-24T16:08:53.473Z,3.32
2023-02-24T16:11:22.237Z,3.35
2023-02-24T16:13:52.118Z,3.34
2023-02-24T16:16:18.599Z,3.39
2023-02-24T16:18:45.091Z,3.40
2023-02-24T16:21:11.584Z,3.36
2023-02-24T16:23:40.837Z,3.39
2023-02-24T16:26:18.399Z,3.36
2023-02-24T16:28:48.244Z,3.40
2023-02-24T16:31:14.843Z,3.43
2023-02-24T16:33:54.175Z,3.42
2023-02-24T16:36:23.436Z,3.44
2023-02-24T16:38:53.041Z,3.44
2023-02-24T16:41:19.616Z,3.45
2023-02-24T16:43:46.070Z,3.44
2023-02-24T16:46:17.158Z,3.43
2023-02-24T16:48:45.398Z,3.41
2023-02-24T16:51:11.809Z,3.38
2023-02-24T16:53:38.431Z,3.37
2023-02-24T16:56:05.168Z,3.38
2023-02-24T16:58:31.719Z,3.41
2023-02-24T17:01:02.962Z,3.41
2023-02-24T17:03:43.913Z,3.45
2023-02-24T17:06:10.355Z,3.44
2023-02-24T17:08:36.858Z,3.46
2023-02-24T17:11:03.496Z,3.48
2023-02-24T17:13:29.894Z,3.52
2023-02-24T17:15:57.310Z,3.58
2023-02-24T17:18:24.325Z,3.58
2023-02-24T17:20:50.934Z,3.59
2023-02-24T17:23:17.340Z,3.58
2023-02-24T17:25:43.745Z,3.60
2023-02-24T17:28:10.613Z,3.58
2023-02-24T17:30:37.284Z,3.61
2023-02-24T17:33:03.825Z,3.64
2023-02-24T17:35:30.243Z,3.66
2023-02-24T17:37:56.684Z,3.66
2023-02-24T17:40:23.387Z,3.67
2023-02-24T17:42:49.871Z,3.68
2023-02-24T17:45:16.311Z,3.64
2023-02-24T17:47:42.918Z,3.69
2023-02-24T17:50:10.731Z,3.65
2023-02-24T17:52:37.191Z,3.67
2023-02-24T17:55:04.632Z,3.68
2023-02-24T17:57:31.063Z,3.68
2023-02-24T17:59:57.448Z,3.69
2023-02-24T18:02:24.228Z,3.67
2023-02-24T18:04:50.690Z,3.66
2023-02-24T18:07:17.437Z,3.69
2023-02-24T18:09:43.802Z,3.70
2023-02-24T18:12:10.333Z,3.72
2023-02-24T18:14:36.719Z,3.72
2023-02-24T18:17:03.059Z,3.72
2023-02-24T18:19:30.653Z,3.72
2023-02-24T18:21:57.034Z,3.75
2023-02-24T18:24:23.390Z,3.75
2023-02-24T18:26:49.814Z,3.75
2023-02-24T18:29:16.167Z,3.76
2023-02-24T18:31:42.696Z,3.77
2023-02-24T18:34:09.277Z,3.75
2023-02-24T18:36:35.734Z,3.75
2023-02-24T18:39:02.151Z,3.74
2023-02-24T18:41:28.810Z,3.77
2023-02-24T18:43:56.624Z,3.76
2023-02-24T18:46:24.133Z,3.78
2023-02-24T18:48:50.834Z,3.80
2023-02-24T18:51:22.316Z,3.81
2023-02-24T18:53:51.416Z,3.82
2023-02-24T18:56:21.514Z,3.84
2023-02-24T18:58:49.479Z,3.85
2023-02-24T19:01:20.302Z,3.86
2023-02-24T19:03:47.109Z,3.85
2023-02-24T19:06:13.554Z,3.87
2023-02-24T19:08:40.496Z,3.89
2023-02-24T19:11:11.887Z,3.90
2023-02-24T19:13:38.323Z,3.88
2023-02-24T19:16:05.273Z,3.90
2023-02-24T19:18:31.878Z,3.94
2023-02-24T19:20:58.304Z,3.93
2023-02-24T19:23:24.726Z,3.94
2023-02-24T19:25:51.376Z,3.94
2023-02-24T19:28:18.929Z,3.95
2023-02-24T19:30:45.353Z,3.93
2023-02-24T19:33:11.816Z,3.94
2023-02-24T19:35:42.042Z,3.94
2023-02-24T19:38:11.213Z,3.96
2023-02-24T19:40:37.609Z,3.94
2023-02-24T19:43:04.111Z,3.95
2023-02-24T19:45:30.485Z,3.95
2023-02-24T19:47:56.928Z,3.96
2023-02-24T19:50:23.344Z,3.96
2023-02-24T19:52:49.696Z,3.95
2023-02-24T19:55:16.169Z,3.96
2023-02-24T19:57:42.549Z,3.94
2023-02-24T20:00:11.494Z,3.93
2023-02-24T20:02:38.817Z,3.90
2023-02-24T20:05:06.590Z,3.92
2023-02-24T20:07:36.162Z,3.86
2023-02-24T20:10:02.770Z,3.89
2023-02-24T20:12:29.192Z,3.89
2023-02-24T20:14:55.562Z,3.91
2023-02-24T20:17:22.174Z,3.93
2023-02-24T20:19:48.599Z,3.96
2023-02-24T20:22:14.975Z,3.99
2023-02-24T20:24:41.406Z,4.02
2023-02-24T20:27:07.981Z,4.05
2023-02-24T20:29:35.110Z,4.08
2023-02-24T20:32:02.005Z,4.09
2023-02-24T20:34:28.449Z,4.11
2023-02-24T20:36:54.863Z,4.10
2023-02-24T20:39:27.194Z,4.09
2023-02-24T20:41:54.599Z,4.07
2023-02-24T20:44:20.957Z,4.06
2023-02-24T20:46:47.483Z,4.04
2023-02-24T20:49:14.897Z,4.03
2023-02-24T20:51:41.440Z,4.04
2023-02-24T20:54:08.552Z,4.04
2023-02-24T20:56:36.392Z,4.07
2023-02-24T20:59:07.939Z,4.08
2023-02-24T21:01:34.581Z,4.07
2023-02-24T21:04:01.286Z,4.10
2023-02-24T21:06:28.147Z,4.10
2023-02-24T21:08:54.924Z,4.11
2023-02-24T21:11:21.474Z,4.11
2023-02-24T21:13:48.690Z,4.09
2023-02-24T21:16:15.811Z,4.08
2023-02-24T21:18:44.107Z,4.05
2023-02-24T21:21:10.786Z,4.04
2023-02-24T21:23:37.421Z,4.02
2023-02-24T21:26:03.900Z,4.02
2023-02-24T21:28:30.249Z,4.04
2023-02-24T21:30:56.799Z,4.03
2023-02-24T21:33:23.212Z,4.03
2023-02-24T21:36:09.596Z,4.05
2023-02-24T21:38:36.818Z,4.01
2023-02-24T21:41:04.345Z,4.05
2023-02-24T21:43:31.049Z,4.04
2023-02-24T21:46:00.679Z,4.05
2023-02-24T21:48:27.060Z,4.06
2023-02-24T21:51:00.525Z,4.07
2023-02-24T21:53:30.054Z,4.07
2023-02-24T21:56:10.823Z,4.08
2023-02-24T21:58:38.807Z,4.08
2023-02-24T22:01:10.010Z,4.08
2023-02-24T22:03:36.498Z,4.08
2023-02-24T22:06:03.179Z,4.07
2023-02-24T22:08:29.521Z,4.08
2023-02-24T22:10:59.947Z,4.09
2023-02-24T22:13:26.588Z,4.10
2023-02-24T22:15:53.152Z,4.08
2023-02-24T22:18:21.160Z,4.09
2023-02-24T22:20:47.682Z,4.10
2023-02-24T22:23:14.029Z,4.08
2023-02-24T22:25:40.503Z,4.06
2023-02-24T22:28:06.880Z,4.07
2023-02-24T22:30:33.415Z,4.02
2023-02-24T22:33:00.009Z,4.02
2023-02-24T22:35:26.410Z,4.01
2023-02-24T22:37:53.613Z,4.00
2023-02-24T22:40:20.906Z,3.97
2023-02-24T22:42:47.303Z,3.97
2023-02-24T22:45:13.697Z,3.95
2023-02-24T22:47:40.314Z,3.94
2023-02-24T22:50:07.468Z,3.93
2023-02-24T22:52:33.867Z,3.92
2023-02-24T22:55:00.724Z,3.90
2023-02-24T22:57:29.083Z,3.90
2023-02-24T22:59:55.976Z,3.92
2023-02-24T23:02:22.515Z,3.86
2023-02-24T23:04:48.866Z,3.89
2023-02-24T23:07:15.221Z,3.86
2023-02-24T23:09:52.289Z,3.85
2023-02-24T23:12:22.318Z,3.84
2023-02-24T23:14:48.718Z,3.84
2023-02-24T23:17:15.264Z,3.85
2023-02-24T23:19:41.664Z,3.86
2023-02-24T23:22:08.153Z,3.89
2023-02-24T23:24:34.693Z,3.91
2023-02-24T23:27:01.089Z,3.91
2023-02-24T23:29:27.699Z,3.94
2023-02-24T23:31:54.549Z,3.94
2023-02-24T23:34:21.185Z,3.94
2023-02-24T23:36:47.858Z,3.95
2023-02-24T23:39:16.250Z,3.97
2023-02-24T23:41:42.814Z,3.96
2023-02-24T23:44:09.398Z,3.97
2023-02-24T23:46:36.268Z,3.91
2023-02-24T23:49:02.674Z,3.90
2023-02-24T23:51:38.604Z,3.86
2023-02-24T23:54:12.992Z,3.89
2023-02-24T23:56:39.412Z,3.85
2023-02-24T23:59:05.768Z,3.87
